Terminal Aerodrome Forecast
Issued by NWS

Home | Current Version | Previous Version | Text Only | Print | Product List | Glossary On
Versions: 1 2 3 4 5 6 7 8 9 10 11 12 13 14 15 16
751
FTUS42 KTAE 302326
TAFVLD
TAF
KVLD 302326Z 0100/0124 22005KT P6SM FEW050 BKN250
     FM011000 18007KT P6SM BKN020
     FM011700 19010G15KT P6SM VCTS BKN025CB
     FM011900 22013G19KT 5SM SHRA VCTS OVC025CB=

USA.gov is the U.S. government's official web portal to all federal, state and local government web resources and services.